Airfield :
LOGIN :

Register | Disclaimer

   EN    FR    IT 

 










Legend :    VFR   Marginal VFR   IFR   Intensive IFR   Very Intensive IFR
Visi :
Ceiling :
>= 8 km
>= 3000ft
5 to 8 km
1000 to 3000 ft
1500m to 5 km
500 to 1000 ft
800 to 1500m
200 to 500 ft
< 800m
< 200 ft
Symbols :   Thunderstorms  Fog  Heavy snow  Heavy precipitations  Wind > 20 kt
SIGMETs :     Misc.  Thunderstorms  Icing  Turbulence  Mountain Waves  Volcanic Ashes







- Airport Elevation : 1766 ft


ETHL - Laupheim AB

CURRENT METAR :
  • 120820Z 21004KT 9999 SCT017 BKN027 M02/M03 Q1022 BLU BLU TEMPO WHT

EXPIRED METARs :
  • 120749Z 10001KT 9999 BKN015 BKN080 M02/M03 Q1022 WHT BLU TEMPO WHT
  • 120720Z 21003KT 9999 SCT016 BKN080 M02/M03 Q1022 BLU BLU
  • 120620Z 24003KT 9999 -SN SCT017 BKN060 M02/M03 Q1022 BLU BLU
  • 120520Z 24004KT 9999 FEW025 BKN060 M02/M03 Q1022 BLU BLU

TAF TAF ETHL
Valid from the 12 at 09:00 until the 12 at 18:00 UTC


120823Z 1209/1218 VRB03KT 9999 NSW SCT015 BKN060
TEMPO 1209/1212 23005KT 9999 NSW BKN015 BKN030
BECMG 1209/1211 06005KT 9999 NSW SCT025 BKN040
No reported NOTAMs for that airfield.



MET'MAP, your aeronautical weather chart ! - Copyright ORBIFLY December 2007 - Disclaimer

ORBIFLY MET'MAP TEAM :

Programming & Development : Alexandra Zaïnal
Concept & Development : Baudouin d'Aumeries
Co-Development & Prog : Marc-Olivier Méhu
Technical & hardware support : Manuel Goepfert

Contact : metmap@orbifly.com




SOURCES & CREDITS :

   NOAA